Time;durP1;ratioP1;P1;durP2;ratioP2;P2;SDS_P1;SDS_P2;PMS_P1;PMS_P2;Temp;Humidity;BMP_temperature;BMP_pressure;BME280_temperature;BME280_humidity;BME280_pressure;Samples;Min_cycle;Max_cycle;Signal;HPM_P1;HPM_P2
2022/05/06 00:01:27;;;;;;;11.27;7.97;;;;;;;;;;5030892;28;20037;-77
2022/05/06 00:03:53;;;;;;;10.63;8.23;;;;;;;;;;5032082;28;20049;-77
2022/05/06 00:06:22;;;;;;;12.98;9.13;;;;;;;;;;5037031;28;20025;-76
2022/05/06 00:08:48;;;;;;;13.57;8.32;;;;;;;;;;5030982;28;20045;-77
2022/05/06 00:11:14;;;;;;;10.50;8.43;;;;;;;;;;5031861;28;20126;-78
2022/05/06 00:13:40;;;;;;;11.13;9.38;;;;;;;;;;5030787;28;20041;-78
2022/05/06 00:16:07;;;;;;;18.70;9.27;;;;;;;;;;5030970;28;20033;-78
2022/05/06 00:18:34;;;;;;;13.15;9.10;;;;;;;;;;5032393;28;20025;-78
2022/05/06 00:21:00;;;;;;;11.52;8.73;;;;;;;;;;5032135;28;20443;-79
2022/05/06 00:23:26;;;;;;;12.80;8.60;;;;;;;;;;5030789;28;20028;-78
2022/05/06 00:25:53;;;;;;;12.75;8.10;;;;;;;;;;5011821;28;20101;-78
2022/05/06 00:28:19;;;;;;;13.95;8.93;;;;;;;;;;4994658;28;20029;-79
2022/05/06 00:30:45;;;;;;;12.88;7.97;;;;;;;;;;4994355;28;20033;-78
2022/05/06 00:33:13;;;;;;;13.10;9.60;;;;;;;;;;4994643;28;20026;-78
2022/05/06 00:35:42;;;;;;;14.23;8.95;;;;;;;;;;5012237;28;20026;-78
2022/05/06 00:38:08;;;;;;;12.35;8.07;;;;;;;;;;4994573;28;20026;-77
2022/05/06 00:40:34;;;;;;;14.57;8.52;;;;;;;;;;5012024;28;20018;-78
2022/05/06 00:43:00;;;;;;;14.02;9.13;;;;;;;;;;4995796;28;20029;-79
2022/05/06 00:45:32;;;;;;;13.40;8.50;;;;;;;;;;5018614;28;20026;-77
2022/05/06 00:47:59;;;;;;;12.63;8.18;;;;;;;;;;5001478;28;20035;-79
2022/05/06 00:50:25;;;;;;;15.07;9.63;;;;;;;;;;5020871;28;20442;-79
2022/05/06 00:52:51;;;;;;;11.27;8.30;;;;;;;;;;5038044;28;20492;-78
2022/05/06 00:55:17;;;;;;;11.38;8.35;;;;;;;;;;5020582;28;20028;-79
2022/05/06 00:57:43;;;;;;;18.75;8.38;;;;;;;;;;5020542;28;20472;-78
2022/05/06 01:00:19;;;;;;;10.80;8.68;;;;;;;;;;5020495;28;20060;-78
2022/05/06 01:02:48;;;;;;;9.52;8.02;;;;;;;;;;5037986;28;20037;-78
2022/05/06 01:05:14;;;;;;;10.73;8.40;;;;;;;;;;5037912;28;20373;-77
2022/05/06 01:07:41;;;;;;;13.65;9.30;;;;;;;;;;5025524;28;20117;-77
2022/05/06 01:10:07;;;;;;;9.50;7.53;;;;;;;;;;5040011;28;20025;-78
2022/05/06 01:12:33;;;;;;;10.77;8.73;;;;;;;;;;5037902;28;20018;-77
2022/05/06 01:15:00;;;;;;;13.60;9.05;;;;;;;;;;5038059;28;20499;-78
2022/05/06 01:17:26;;;;;;;13.27;8.60;;;;;;;;;;5020267;28;20021;-78
2022/05/06 01:19:52;;;;;;;12.13;8.38;;;;;;;;;;5019974;28;20073;-78
2022/05/06 01:22:18;;;;;;;9.85;7.78;;;;;;;;;;5020149;28;20034;-78
2022/05/06 01:24:44;;;;;;;16.42;7.63;;;;;;;;;;5038003;28;20045;-78
2022/05/06 01:27:29;;;;;;;11.48;8.85;;;;;;;;;;5020404;28;20075;-80
2022/05/06 01:29:55;;;;;;;10.77;8.13;;;;;;;;;;5020334;28;20349;-78
2022/05/06 01:32:22;;;;;;;9.25;8.05;;;;;;;;;;5037999;28;20071;-78
2022/05/06 01:34:49;;;;;;;13.07;9.48;;;;;;;;;;5020301;28;20021;-79
2022/05/06 01:37:16;;;;;;;13.98;8.57;;;;;;;;;;5020225;28;20116;-79
2022/05/06 01:39:43;;;;;;;13.02;9.10;;;;;;;;;;5037576;28;20021;-78
2022/05/06 01:42:10;;;;;;;13.82;9.52;;;;;;;;;;5020084;28;20071;-80
2022/05/06 01:44:39;;;;;;;12.15;7.72;;;;;;;;;;5020205;28;20559;-78
2022/05/06 01:47:09;;;;;;;11.90;8.85;;;;;;;;;;5037609;28;20498;-77
2022/05/06 01:49:35;;;;;;;10.70;7.65;;;;;;;;;;5020014;28;20033;-78
2022/05/06 01:52:02;;;;;;;11.80;8.93;;;;;;;;;;5038212;28;20021;-79
2022/05/06 01:54:28;;;;;;;12.93;8.60;;;;;;;;;;5036579;28;20108;-78
2022/05/06 01:56:54;;;;;;;13.82;8.48;;;;;;;;;;5034741;28;20036;-77
2022/05/06 01:59:20;;;;;;;10.18;8.27;;;;;;;;;;5034862;28;20029;-78
2022/05/06 02:01:46;;;;;;;11.00;7.90;;;;;;;;;;5016725;28;20111;-77
2022/05/06 02:06:57;;;;;;;10.75;8.13;;;;;;;;;;5034547;28;20116;-76
2022/05/06 02:09:23;;;;;;;14.07;8.00;;;;;;;;;;5021436;28;20022;-77
2022/05/06 02:11:49;;;;;;;9.23;7.38;;;;;;;;;;5018985;28;20024;-77
2022/05/06 02:14:16;;;;;;;11.80;7.25;;;;;;;;;;5034467;28;20025;-77
2022/05/06 02:16:42;;;;;;;8.85;7.25;;;;;;;;;;5034362;28;20384;-76
2022/05/06 02:19:08;;;;;;;11.07;7.15;;;;;;;;;;5034068;28;20057;-76
2022/05/06 02:21:34;;;;;;;11.23;8.38;;;;;;;;;;5034234;28;20033;-77
2022/05/06 02:24:00;;;;;;;9.73;7.13;;;;;;;;;;5033906;28;20021;-77
2022/05/06 02:26:26;;;;;;;13.25;7.97;;;;;;;;;;5034134;28;20061;-76
2022/05/06 02:28:52;;;;;;;9.93;7.45;;;;;;;;;;5016308;28;20507;-76
2022/05/06 02:34:03;;;;;;;10.63;7.90;;;;;;;;;;5033814;28;20400;-78
2022/05/06 02:36:29;;;;;;;9.82;8.15;;;;;;;;;;5033891;28;20026;-78
2022/05/06 02:38:55;;;;;;;9.85;7.82;;;;;;;;;;5034232;28;20021;-77
2022/05/06 02:41:21;;;;;;;15.68;9.80;;;;;;;;;;5034122;28;20275;-78
2022/05/06 02:43:47;;;;;;;12.10;8.32;;;;;;;;;;5016064;28;20369;-77
2022/05/06 02:46:13;;;;;;;10.27;8.27;;;;;;;;;;5016000;28;20025;-78
2022/05/06 02:48:39;;;;;;;10.68;7.80;;;;;;;;;;5033428;28;20017;-78
2022/05/06 02:51:05;;;;;;;14.05;8.40;;;;;;;;;;5015891;28;20021;-79
2022/05/06 02:53:32;;;;;;;9.88;8.02;;;;;;;;;;5033679;28;20044;-78
2022/05/06 02:55:58;;;;;;;16.25;8.68;;;;;;;;;;5015722;28;20049;-77
2022/05/06 02:58:24;;;;;;;8.18;7.03;;;;;;;;;;5015746;28;20021;-78
2022/05/06 03:00:50;;;;;;;9.88;7.80;;;;;;;;;;5015514;28;20017;-77
2022/05/06 03:03:16;;;;;;;9.73;7.72;;;;;;;;;;5033412;28;20100;-76
2022/05/06 03:05:42;;;;;;;19.52;9.00;;;;;;;;;;5033315;28;20044;-78
2022/05/06 03:08:08;;;;;;;10.75;8.00;;;;;;;;;;5014528;28;20026;-77
2022/05/06 03:10:34;;;;;;;14.85;8.20;;;;;;;;;;5015823;28;20064;-78
2022/05/06 03:13:00;;;;;;;11.38;7.68;;;;;;;;;;5020996;28;20488;-77
2022/05/06 03:15:27;;;;;;;12.90;8.35;;;;;;;;;;5015312;28;20060;-79
2022/05/06 03:17:53;;;;;;;10.70;8.38;;;;;;;;;;5033131;28;20022;-79
2022/05/06 03:20:20;;;;;;;12.35;8.18;;;;;;;;;;5032754;28;20057;-77
2022/05/06 03:22:46;;;;;;;11.77;7.75;;;;;;;;;;5032922;28;20526;-77
2022/05/06 03:25:13;;;;;;;11.82;7.85;;;;;;;;;;5016039;28;20028;-79
2022/05/06 03:30:24;;;;;;;14.32;7.65;;;;;;;;;;5033253;28;20048;-79
2022/05/06 03:32:50;;;;;;;11.20;7.38;;;;;;;;;;5015200;28;20167;-77
2022/05/06 03:35:16;;;;;;;9.32;7.03;;;;;;;;;;5015008;28;20025;-78
2022/05/06 03:37:43;;;;;;;12.80;7.97;;;;;;;;;;5035339;28;20033;-78
2022/05/06 03:40:10;;;;;;;13.45;6.38;;;;;;;;;;5035369;28;20064;-77
2022/05/06 03:42:36;;;;;;;16.08;7.50;;;;;;;;;;5035774;28;20075;-77
2022/05/06 03:45:03;;;;;;;9.77;7.35;;;;;;;;;;5016286;28;20057;-76
2022/05/06 03:47:29;;;;;;;12.57;7.80;;;;;;;;;;5014807;28;20048;-77
2022/05/06 03:52:40;;;;;;;11.00;7.82;;;;;;;;;;5032240;28;20036;-78
2022/05/06 03:55:06;;;;;;;14.48;7.80;;;;;;;;;;5032412;28;20053;-77
2022/05/06 03:57:32;;;;;;;11.73;7.63;;;;;;;;;;5014621;28;20022;-76
2022/05/06 03:59:58;;;;;;;9.80;7.88;;;;;;;;;;5014927;28;20365;-78
2022/05/06 04:02:25;;;;;;;14.00;9.05;;;;;;;;;;5012329;28;20485;-78
2022/05/06 04:04:51;;;;;;;11.25;8.32;;;;;;;;;;5014338;28;20396;-79
2022/05/06 04:07:17;;;;;;;11.32;8.65;;;;;;;;;;5016896;28;20045;-78
2022/05/06 04:09:43;;;;;;;16.90;8.65;;;;;;;;;;5011908;28;20037;-78
2022/05/06 04:12:12;;;;;;;10.30;8.35;;;;;;;;;;5012617;28;20495;-79
2022/05/06 04:14:38;;;;;;;9.70;7.65;;;;;;;;;;5011632;28;20099;-76
2022/05/06 04:17:04;;;;;;;10.75;8.65;;;;;;;;;;5012507;28;20026;-78
2022/05/06 04:19:30;;;;;;;15.77;8.90;;;;;;;;;;5010363;28;20054;-77
2022/05/06 04:24:41;;;;;;;11.20;8.13;;;;;;;;;;5012022;28;20083;-77
2022/05/06 04:27:07;;;;;;;12.95;8.00;;;;;;;;;;5012140;28;20100;-77
2022/05/06 04:29:33;;;;;;;10.90;8.75;;;;;;;;;;5012075;28;20030;-79
2022/05/06 04:31:59;;;;;;;9.38;7.50;;;;;;;;;;5028811;28;20026;-78
2022/05/06 04:34:25;;;;;;;11.45;7.80;;;;;;;;;;5031965;28;20029;-78
2022/05/06 04:36:51;;;;;;;12.63;8.63;;;;;;;;;;5033103;28;20128;-76
2022/05/06 04:39:17;;;;;;;12.43;8.38;;;;;;;;;;5016747;28;20025;-78
2022/05/06 04:41:45;;;;;;;11.15;8.32;;;;;;;;;;5036636;28;20061;-77
2022/05/06 04:44:11;;;;;;;15.45;11.45;;;;;;;;;;5033635;28;20045;-76
2022/05/06 04:46:37;;;;;;;14.40;8.50;;;;;;;;;;5010867;28;20029;-76
2022/05/06 04:49:03;;;;;;;14.82;8.88;;;;;;;;;;5018344;28;20033;-76
2022/05/06 04:51:29;;;;;;;12.32;8.70;;;;;;;;;;5019195;28;20060;-77
2022/05/06 04:53:55;;;;;;;14.45;8.25;;;;;;;;;;5019598;28;20014;-77
2022/05/06 04:56:24;;;;;;;14.75;9.75;;;;;;;;;;5030341;28;20021;-77
2022/05/06 04:58:50;;;;;;;11.60;8.93;;;;;;;;;;5022185;28;20088;-77
2022/05/06 05:01:16;;;;;;;10.50;8.48;;;;;;;;;;5008448;28;20492;-77
2022/05/06 05:03:42;;;;;;;13.93;8.82;;;;;;;;;;5022751;28;20029;-77
2022/05/06 05:06:08;;;;;;;13.15;8.10;;;;;;;;;;5020878;28;20026;-77
2022/05/06 05:08:34;;;;;;;13.55;8.68;;;;;;;;;;5017206;28;20030;-77
2022/05/06 05:11:04;;;;;;;12.05;9.02;;;;;;;;;;5022604;28;20033;-78
2022/05/06 05:13:38;;;;;;;11.93;8.23;;;;;;;;;;5026694;28;20092;-78
2022/05/06 05:16:04;;;;;;;15.20;9.23;;;;;;;;;;5029597;28;20029;-77
2022/05/06 05:18:31;;;;;;;11.45;8.13;;;;;;;;;;5028409;28;20017;-78
2022/05/06 05:20:57;;;;;;;11.07;8.45;;;;;;;;;;5027507;28;20124;-77
2022/05/06 05:23:23;;;;;;;18.00;9.77;;;;;;;;;;5020283;28;20026;-77
2022/05/06 05:25:49;;;;;;;15.80;9.98;;;;;;;;;;5021356;28;20022;-76
2022/05/06 05:28:15;;;;;;;18.77;10.60;;;;;;;;;;5020534;28;20128;-77
2022/05/06 05:30:41;;;;;;;10.80;7.60;;;;;;;;;;5011384;28;20029;-77
2022/05/06 05:33:07;;;;;;;10.98;7.20;;;;;;;;;;5010498;28;20476;-76
2022/05/06 05:35:34;;;;;;;14.43;8.45;;;;;;;;;;5033930;28;20021;-78
2022/05/06 05:38:00;;;;;;;15.43;10.55;;;;;;;;;;5030078;28;20032;-78
2022/05/06 05:40:26;;;;;;;13.65;8.55;;;;;;;;;;5024285;28;20063;-77
2022/05/06 05:42:52;;;;;;;13.75;8.88;;;;;;;;;;5021783;28;20030;-79
2022/05/06 05:48:22;;;;;;;15.88;9.05;;;;;;;;;;5030241;28;20399;-75
2022/05/06 05:50:49;;;;;;;18.25;11.57;;;;;;;;;;5028629;28;20013;-76
2022/05/06 05:53:15;;;;;;;15.85;10.35;;;;;;;;;;5031290;28;20018;-77
2022/05/06 05:55:41;;;;;;;11.50;8.13;;;;;;;;;;5004522;28;20103;-76
2022/05/06 05:58:07;;;;;;;11.25;9.00;;;;;;;;;;5032645;28;20018;-77
2022/05/06 06:00:33;;;;;;;14.00;8.52;;;;;;;;;;5015441;28;20022;-76
2022/05/06 06:02:59;;;;;;;17.70;9.80;;;;;;;;;;5034290;28;20392;-76
2022/05/06 06:05:25;;;;;;;20.00;11.02;;;;;;;;;;5016113;28;20091;-78
2022/05/06 06:07:51;;;;;;;15.82;10.25;;;;;;;;;;5032217;28;20025;-75
2022/05/06 06:10:17;;;;;;;19.80;13.35;;;;;;;;;;5014844;28;20571;-76
2022/05/06 06:12:43;;;;;;;11.25;8.45;;;;;;;;;;5032496;28;20064;-78
2022/05/06 06:15:09;;;;;;;12.55;8.43;;;;;;;;;;5032122;28;20021;-78
2022/05/06 06:17:35;;;;;;;20.92;13.63;;;;;;;;;;5032237;28;20383;-77
2022/05/06 06:20:02;;;;;;;16.58;10.45;;;;;;;;;;5031876;28;20045;-77
2022/05/06 06:22:28;;;;;;;17.50;10.43;;;;;;;;;;5033668;28;20427;-75
2022/05/06 06:24:54;;;;;;;13.98;10.13;;;;;;;;;;5033804;28;20047;-75
2022/05/06 06:27:21;;;;;;;13.70;10.75;;;;;;;;;;5034064;28;20156;-75
2022/05/06 06:29:49;;;;;;;15.18;10.48;;;;;;;;;;5033915;28;20021;-77
2022/05/06 06:32:16;;;;;;;14.65;10.55;;;;;;;;;;5032948;28;20029;-78
2022/05/06 06:34:42;;;;;;;14.85;11.98;;;;;;;;;;5034711;28;20083;-78
2022/05/06 06:37:08;;;;;;;21.08;10.43;;;;;;;;;;5034431;28;20025;-78
2022/05/06 06:39:36;;;;;;;14.82;10.75;;;;;;;;;;5033622;28;20040;-77
2022/05/06 06:42:02;;;;;;;16.60;10.45;;;;;;;;;;5032330;28;20430;-76
2022/05/06 06:44:28;;;;;;;17.33;11.18;;;;;;;;;;5034082;28;20032;-77
2022/05/06 06:46:55;;;;;;;17.48;11.82;;;;;;;;;;5032122;28;20029;-78
2022/05/06 06:49:21;;;;;;;18.70;9.70;;;;;;;;;;5033384;28;20020;-77
2022/05/06 06:51:47;;;;;;;11.77;9.82;;;;;;;;;;5026957;28;20502;-78
2022/05/06 06:54:13;;;;;;;15.20;10.43;;;;;;;;;;5033257;28;20021;-77
2022/05/06 06:56:40;;;;;;;14.40;10.18;;;;;;;;;;5033591;28;20021;-77
2022/05/06 06:59:06;;;;;;;16.70;9.55;;;;;;;;;;5015591;28;20022;-76
2022/05/06 07:01:33;;;;;;;18.23;10.65;;;;;;;;;;5032487;28;20685;-76
2022/05/06 07:04:00;;;;;;;14.63;10.95;;;;;;;;;;5013641;28;20018;-77
2022/05/06 07:11:57;;;;;;;13.50;8.63;;;;;;;;;;5013325;28;20041;-79
2022/05/06 07:14:25;;;;;;;10.80;8.57;;;;;;;;;;5015888;28;20025;-78
2022/05/06 07:16:52;;;;;;;16.52;9.05;;;;;;;;;;5029029;28;20014;-77
2022/05/06 07:19:20;;;;;;;16.00;8.40;;;;;;;;;;5014957;28;20473;-78
2022/05/06 07:21:46;;;;;;;12.13;8.50;;;;;;;;;;5032547;28;20033;-77
2022/05/06 07:24:12;;;;;;;13.70;8.48;;;;;;;;;;5032705;28;20025;-77
2022/05/06 07:26:38;;;;;;;18.65;9.77;;;;;;;;;;5032808;28;20108;-79
2022/05/06 07:29:04;;;;;;;15.63;8.63;;;;;;;;;;5032607;28;20402;-79
2022/05/06 07:31:31;;;;;;;14.60;8.75;;;;;;;;;;5032485;28;20163;-78
2022/05/06 07:33:57;;;;;;;14.98;9.63;;;;;;;;;;5014933;28;20423;-78
2022/05/06 07:36:23;;;;;;;17.65;8.18;;;;;;;;;;5032919;28;20506;-79
2022/05/06 07:38:49;;;;;;;13.63;8.55;;;;;;;;;;5032328;28;20476;-78
2022/05/06 07:41:15;;;;;;;18.60;10.55;;;;;;;;;;5032623;28;20543;-78
2022/05/06 07:43:42;;;;;;;11.27;7.85;;;;;;;;;;5032550;28;20579;-78
2022/05/06 07:46:09;;;;;;;17.67;10.63;;;;;;;;;;5032451;28;20026;-78
2022/05/06 07:48:36;;;;;;;21.27;10.80;;;;;;;;;;5032370;28;20017;-77
2022/05/06 07:51:02;;;;;;;13.23;8.85;;;;;;;;;;5014520;28;20022;-76
2022/05/06 07:53:28;;;;;;;17.77;11.98;;;;;;;;;;5014022;28;20392;-78
2022/05/06 07:55:54;;;;;;;18.20;9.80;;;;;;;;;;5032607;28;20045;-79
2022/05/06 07:58:20;;;;;;;19.77;7.55;;;;;;;;;;5014849;28;20022;-78
2022/05/06 08:00:46;;;;;;;15.52;6.57;;;;;;;;;;5032452;28;20484;-77
2022/05/06 08:05:57;;;;;;;16.00;7.30;;;;;;;;;;5031814;28;20044;-77
2022/05/06 08:08:27;;;;;;;14.23;6.78;;;;;;;;;;5031035;28;20018;-78
2022/05/06 08:10:54;;;;;;;10.45;6.13;;;;;;;;;;5032153;28;20025;-77
2022/05/06 08:13:20;;;;;;;8.65;5.93;;;;;;;;;;5032174;28;20104;-76
2022/05/06 08:15:47;;;;;;;12.40;6.22;;;;;;;;;;5032473;28;20025;-79
2022/05/06 08:18:13;;;;;;;13.52;6.63;;;;;;;;;;5031998;28;20021;-79
2022/05/06 08:20:40;;;;;;;8.00;6.10;;;;;;;;;;5032068;28;20168;-79
2022/05/06 08:23:07;;;;;;;10.55;6.32;;;;;;;;;;5030604;28;20523;-77
2022/05/06 08:25:33;;;;;;;8.77;6.30;;;;;;;;;;5032114;28;20045;-79
2022/05/06 08:27:59;;;;;;;12.85;6.30;;;;;;;;;;5031513;28;20028;-78
2022/05/06 08:30:25;;;;;;;8.02;5.82;;;;;;;;;;5031575;28;20028;-78
2022/05/06 08:32:52;;;;;;;10.60;6.03;;;;;;;;;;5030274;28;20436;-78
2022/05/06 08:35:19;;;;;;;11.68;6.20;;;;;;;;;;5031552;28;20018;-77
2022/05/06 08:37:46;;;;;;;7.82;5.55;;;;;;;;;;5030448;28;20017;-77
2022/05/06 08:40:23;;;;;;;9.88;6.13;;;;;;;;;;5030561;28;20024;-76
2022/05/06 08:42:49;;;;;;;12.15;6.28;;;;;;;;;;5031495;28;20025;-78
2022/05/06 08:50:53;;;;;;;12.15;5.65;;;;;;;;;;5031611;28;20507;-77
2022/05/06 08:53:23;;;;;;;10.35;5.78;;;;;;;;;;5031229;28;20032;-78
2022/05/06 08:55:50;;;;;;;12.88;5.88;;;;;;;;;;5031689;28;20026;-76
2022/05/06 08:58:16;;;;;;;7.80;5.90;;;;;;;;;;5031280;28;20101;-78
2022/05/06 09:00:43;;;;;;;11.80;5.18;;;;;;;;;;5031741;28;20025;-77
2022/05/06 09:03:09;;;;;;;11.48;5.88;;;;;;;;;;5013855;28;20590;-78
2022/05/06 09:05:47;;;;;;;6.65;4.82;;;;;;;;;;5017183;28;20079;-78
2022/05/06 09:08:13;;;;;;;10.90;5.45;;;;;;;;;;5017768;28;20018;-78
2022/05/06 09:10:39;;;;;;;12.10;5.60;;;;;;;;;;5035543;28;20022;-77
2022/05/06 09:13:06;;;;;;;12.25;5.78;;;;;;;;;;5035217;28;20018;-77
2022/05/06 09:18:24;;;;;;;11.65;5.78;;;;;;;;;;5035389;28;20051;-78
2022/05/06 09:20:51;;;;;;;9.93;5.78;;;;;;;;;;5017382;28;20382;-77
2022/05/06 09:23:24;;;;;;;8.93;5.43;;;;;;;;;;5035143;28;20028;-77
2022/05/06 09:25:51;;;;;;;7.55;5.40;;;;;;;;;;5035369;28;20060;-79
2022/05/06 09:28:22;;;;;;;9.80;5.35;;;;;;;;;;5035070;28;20116;-77
2022/05/06 09:31:01;;;;;;;9.00;7.13;;;;;;;;;;5013539;28;20821;-78
2022/05/06 09:33:28;;;;;;;10.85;6.47;;;;;;;;;;5013795;28;20105;-80
2022/05/06 09:35:57;;;;;;;8.75;5.72;;;;;;;;;;5012418;28;20049;-79
2022/05/06 09:38:25;;;;;;;7.18;5.22;;;;;;;;;;5012837;28;20072;-78
2022/05/06 09:40:51;;;;;;;9.85;4.97;;;;;;;;;;5016008;28;20026;-78
2022/05/06 09:43:18;;;;;;;7.47;5.47;;;;;;;;;;5013363;28;20117;-79
2022/05/06 09:45:44;;;;;;;7.22;5.40;;;;;;;;;;5017219;28;20026;-78
2022/05/06 09:48:12;;;;;;;9.88;5.68;;;;;;;;;;5013654;28;20025;-76
2022/05/06 09:50:38;;;;;;;7.60;6.70;;;;;;;;;;5014258;28;20045;-78
2022/05/06 09:53:07;;;;;;;8.02;5.75;;;;;;;;;;5026147;28;20029;-76
2022/05/06 09:55:35;;;;;;;10.20;5.50;;;;;;;;;;5019246;28;20084;-76
2022/05/06 09:58:01;;;;;;;11.10;6.22;;;;;;;;;;5021820;28;20034;-77
2022/05/06 10:00:27;;;;;;;12.20;5.80;;;;;;;;;;5016990;28;20084;-79
2022/05/06 10:02:54;;;;;;;9.13;5.80;;;;;;;;;;5015718;28;20034;-78
2022/05/06 10:05:20;;;;;;;10.85;5.70;;;;;;;;;;5013622;28;20033;-77
2022/05/06 10:07:47;;;;;;;6.88;4.97;;;;;;;;;;5014927;28;20026;-76
2022/05/06 10:10:19;;;;;;;8.73;5.30;;;;;;;;;;5013465;28;20539;-79
2022/05/06 10:12:52;;;;;;;7.65;5.32;;;;;;;;;;5013355;28;20034;-77
2022/05/06 10:15:20;;;;;;;10.40;4.22;;;;;;;;;;5014447;28;20022;-77
2022/05/06 10:17:48;;;;;;;8.20;4.50;;;;;;;;;;5014292;28;20026;-76
2022/05/06 10:20:33;;;;;;;6.82;4.82;;;;;;;;;;5014530;28;20129;-80
2022/05/06 10:23:00;;;;;;;7.32;4.25;;;;;;;;;;5014521;28;20045;-78
2022/05/06 10:25:42;;;;;;;6.35;4.25;;;;;;;;;;5013222;28;20033;-78
2022/05/06 10:34:08;;;;;;;7.38;3.70;;;;;;;;;;5014015;28;20503;-77
2022/05/06 10:36:48;;;;;;;8.52;3.88;;;;;;;;;;5014348;28;20030;-77
2022/05/06 10:39:20;;;;;;;8.35;4.65;;;;;;;;;;5014542;28;20068;-77
2022/05/06 10:42:05;;;;;;;8.73;4.25;;;;;;;;;;5013671;28;20030;-77
2022/05/06 10:44:37;;;;;;;8.27;4.18;;;;;;;;;;5011657;28;20037;-79
2022/05/06 10:47:04;;;;;;;7.18;4.18;;;;;;;;;;5012812;28;20025;-78
2022/05/06 10:49:39;;;;;;;8.27;4.13;;;;;;;;;;5013878;28;20026;-78
2022/05/06 10:52:14;;;;;;;7.60;4.65;;;;;;;;;;5018278;28;20094;-76
2022/05/06 10:54:47;;;;;;;5.95;4.10;;;;;;;;;;5019834;28;20030;-76
2022/05/06 10:57:13;;;;;;;5.38;3.75;;;;;;;;;;5020309;28;20025;-76
2022/05/06 10:59:51;;;;;;;9.63;4.53;;;;;;;;;;5013078;28;20481;-78
2022/05/06 11:02:18;;;;;;;11.50;5.28;;;;;;;;;;5012821;28;20038;-75
2022/05/06 11:04:50;;;;;;;14.30;9.68;;;;;;;;;;5011764;28;20493;-78
2022/05/06 11:07:19;;;;;;;12.60;9.30;;;;;;;;;;5022452;28;20026;-78
2022/05/06 11:09:46;;;;;;;9.63;4.75;;;;;;;;;;5016031;28;20388;-80
2022/05/06 11:12:28;;;;;;;10.27;5.45;;;;;;;;;;5015838;28;20025;-79
2022/05/06 11:14:54;;;;;;;11.32;7.88;;;;;;;;;;5015426;28;20465;-75
2022/05/06 11:17:27;;;;;;;15.27;11.15;;;;;;;;;;5015470;28;20116;-76
2022/05/06 11:19:53;;;;;;;9.25;5.75;;;;;;;;;;5033416;28;20041;-81
2022/05/06 11:22:20;;;;;;;8.40;4.38;;;;;;;;;;5016572;28;20044;-80
2022/05/06 11:24:47;;;;;;;23.05;17.15;;;;;;;;;;5015575;28;20476;-79
2022/05/06 11:27:13;;;;;;;17.23;13.07;;;;;;;;;;5015193;28;20108;-77
2022/05/06 11:29:51;;;;;;;10.32;6.60;;;;;;;;;;5032688;28;20025;-77
2022/05/06 11:32:18;;;;;;;8.70;5.05;;;;;;;;;;5033197;28;20021;-80
2022/05/06 11:34:48;;;;;;;11.77;9.10;;;;;;;;;;5015693;28;20017;-78
2022/05/06 11:37:21;;;;;;;12.88;6.00;;;;;;;;;;5033361;28;20053;-79
2022/05/06 11:39:47;;;;;;;;;;;;;;;;;;5015859;28;20060;-77
2022/05/06 11:42:19;;;;;;;39.15;27.77;;;;;;;;;;5003950;28;19953;-78
2022/05/06 11:47:39;;;;;;;10.32;5.78;;;;;;;;;;5012910;28;20112;-78
2022/05/06 11:50:05;;;;;;;7.40;4.40;;;;;;;;;;5012221;28;20148;-78
2022/05/06 11:52:32;;;;;;;10.20;4.15;;;;;;;;;;5012362;28;20076;-79
2022/05/06 11:54:59;;;;;;;6.65;3.55;;;;;;;;;;5012861;28;20088;-78
2022/05/06 11:57:25;;;;;;;7.20;4.53;;;;;;;;;;5011523;28;20018;-80
2022/05/06 11:59:51;;;;;;;9.40;3.97;;;;;;;;;;5010123;28;20021;-77
2022/05/06 12:02:17;;;;;;;10.23;3.53;;;;;;;;;;5010099;28;20060;-78
2022/05/06 12:04:43;;;;;;;8.63;3.97;;;;;;;;;;5010311;28;20474;-78
2022/05/06 12:07:09;;;;;;;5.57;3.92;;;;;;;;;;5010107;28;20049;-78
2022/05/06 12:09:43;;;;;;;5.57;3.42;;;;;;;;;;5009419;28;20022;-79
2022/05/06 12:12:10;;;;;;;5.63;2.92;;;;;;;;;;5008411;28;20077;-78
2022/05/06 12:14:37;;;;;;;4.93;3.95;;;;;;;;;;5009681;28;20067;-78
2022/05/06 12:17:04;;;;;;;7.03;4.47;;;;;;;;;;5011055;28;20018;-77
2022/05/06 12:19:37;;;;;;;9.32;4.63;;;;;;;;;;5009364;28;20042;-79
2022/05/06 12:22:14;;;;;;;9.02;5.95;;;;;;;;;;5010790;28;20037;-77
2022/05/06 12:24:40;;;;;;;4.88;4.05;;;;;;;;;;5011210;28;20026;-77
2022/05/06 12:27:09;;;;;;;8.27;3.30;;;;;;;;;;5011723;28;20047;-77
2022/05/06 12:29:42;;;;;;;9.50;5.03;;;;;;;;;;5011406;28;20026;-77
2022/05/06 12:32:08;;;;;;;11.40;4.85;;;;;;;;;;5011703;28;20193;-78
2022/05/06 12:34:34;;;;;;;4.55;3.60;;;;;;;;;;5012840;28;20077;-80
2022/05/06 12:37:10;;;;;;;8.55;4.25;;;;;;;;;;5012750;28;20044;-78
2022/05/06 12:39:48;;;;;;;10.55;3.80;;;;;;;;;;5010908;28;20389;-77
2022/05/06 12:42:15;;;;;;;4.82;3.65;;;;;;;;;;5011113;28;20040;-78
2022/05/06 12:44:42;;;;;;;7.57;3.70;;;;;;;;;;5011297;28;20025;-77
2022/05/06 12:49:39;;;;;;;7.28;3.40;;;;;;;;;;5012550;28;20503;-77
2022/05/06 12:50:05;;;;;;;9.65;4.95;;;;;;;;;;5012117;28;20080;-80
2022/05/06 12:52:35;;;;;;;20.13;15.40;;;;;;;;;;5012546;28;20022;-78
2022/05/06 12:55:01;;;;;;;5.15;4.10;;;;;;;;;;5012245;28;20045;-77
2022/05/06 12:57:28;;;;;;;13.63;8.93;;;;;;;;;;5012272;28;20029;-80
2022/05/06 12:59:54;;;;;;;6.60;3.72;;;;;;;;;;5012158;28;20068;-77
2022/05/06 13:02:21;;;;;;;9.43;4.63;;;;;;;;;;5012017;28;20030;-78
2022/05/06 13:04:47;;;;;;;8.48;5.53;;;;;;;;;;5012474;28;20022;-78
2022/05/06 13:07:14;;;;;;;9.55;4.53;;;;;;;;;;5012179;28;20184;-78
2022/05/06 13:09:40;;;;;;;6.95;3.53;;;;;;;;;;5010998;28;20053;-78
2022/05/06 13:12:06;;;;;;;13.35;5.45;;;;;;;;;;5012147;28;20022;-77
2022/05/06 13:14:32;;;;;;;6.22;3.88;;;;;;;;;;5013094;28;20072;-78
2022/05/06 13:16:58;;;;;;;10.23;5.03;;;;;;;;;;5011031;28;20022;-79
2022/05/06 13:19:25;;;;;;;15.45;4.28;;;;;;;;;;5008183;28;20042;-78
2022/05/06 13:21:51;;;;;;;6.93;3.72;;;;;;;;;;4992797;28;20030;-77
2022/05/06 13:24:18;;;;;;;7.28;5.18;;;;;;;;;;5007728;28;20077;-78
2022/05/06 13:26:44;;;;;;;9.52;4.40;;;;;;;;;;5007613;28;20481;-77
2022/05/06 13:29:11;;;;;;;8.15;3.75;;;;;;;;;;4992333;28;20018;-76
2022/05/06 13:31:38;;;;;;;5.07;3.15;;;;;;;;;;4999641;28;20026;-76
2022/05/06 13:34:04;;;;;;;7.03;3.28;;;;;;;;;;5010538;28;20117;-77
2022/05/06 13:36:31;;;;;;;6.43;3.92;;;;;;;;;;5011678;28;20026;-76
2022/05/06 13:38:57;;;;;;;7.88;3.95;;;;;;;;;;5011810;28;20071;-76
2022/05/06 13:41:23;;;;;;;11.80;4.25;;;;;;;;;;5010762;28;20431;-80
2022/05/06 13:43:50;;;;;;;9.18;4.95;;;;;;;;;;5010631;28;20022;-77
2022/05/06 13:46:16;;;;;;;8.13;3.47;;;;;;;;;;5011915;28;20041;-77
2022/05/06 13:48:42;;;;;;;6.45;4.22;;;;;;;;;;5010839;28;20073;-79
2022/05/06 13:51:08;;;;;;;6.20;3.60;;;;;;;;;;5011249;28;20117;-79
2022/05/06 13:53:34;;;;;;;7.68;3.60;;;;;;;;;;5014361;28;20125;-78
2022/05/06 14:01:30;;;;;;;7.72;3.40;;;;;;;;;;5012255;28;20172;-77
2022/05/06 14:03:56;;;;;;;9.50;3.72;;;;;;;;;;4995603;28;20025;-77
2022/05/06 14:06:22;;;;;;;6.82;3.15;;;;;;;;;;5016284;28;20034;-77
2022/05/06 14:08:48;;;;;;;4.63;3.35;;;;;;;;;;4994227;28;20425;-78
2022/05/06 14:11:16;;;;;;;6.63;3.40;;;;;;;;;;4995639;28;20496;-79
2022/05/06 14:13:42;;;;;;;6.95;3.60;;;;;;;;;;4993925;28;20028;-77
2022/05/06 14:16:08;;;;;;;5.43;3.40;;;;;;;;;;4994727;28;20093;-77
2022/05/06 14:18:34;;;;;;;7.30;3.97;;;;;;;;;;4995088;28;20033;-77
2022/05/06 14:21:01;;;;;;;8.98;4.13;;;;;;;;;;5011171;28;20427;-77
2022/05/06 14:23:27;;;;;;;6.00;3.88;;;;;;;;;;4996581;28;20045;-79
2022/05/06 14:25:54;;;;;;;5.50;4.00;;;;;;;;;;5014236;28;20035;-80
2022/05/06 14:28:20;;;;;;;8.55;4.97;;;;;;;;;;5013948;28;20396;-79
2022/05/06 14:30:46;;;;;;;6.75;4.03;;;;;;;;;;5014399;28;20477;-80
2022/05/06 14:33:13;;;;;;;5.10;3.63;;;;;;;;;;4996979;28;20032;-77
2022/05/06 14:35:40;;;;;;;8.00;4.35;;;;;;;;;;4996470;28;20029;-77
2022/05/06 14:38:06;;;;;;;8.40;5.57;;;;;;;;;;4996590;28;20026;-78
2022/05/06 14:40:32;;;;;;;8.68;4.18;;;;;;;;;;4996726;28;20029;-79
2022/05/06 14:42:58;;;;;;;5.65;3.70;;;;;;;;;;4996655;28;20038;-78
2022/05/06 14:45:25;;;;;;;6.88;4.97;;;;;;;;;;4996209;28;20203;-79
2022/05/06 14:47:51;;;;;;;8.95;4.10;;;;;;;;;;5023774;28;20112;-79
2022/05/06 14:50:17;;;;;;;19.25;10.43;;;;;;;;;;5021826;28;20051;-80
2022/05/06 14:52:44;;;;;;;7.88;4.93;;;;;;;;;;5024227;28;20025;-79
2022/05/06 14:55:10;;;;;;;15.40;6.43;;;;;;;;;;5025513;28;20104;-78
2022/05/06 14:57:36;;;;;;;8.75;6.13;;;;;;;;;;5021813;28;20025;-78
2022/05/06 15:00:06;;;;;;;7.38;4.50;;;;;;;;;;5022548;28;20029;-79
2022/05/06 15:02:35;;;;;;;7.50;4.18;;;;;;;;;;5022610;28;20033;-77
2022/05/06 15:05:01;;;;;;;8.40;4.93;;;;;;;;;;5029481;28;20026;-80
2022/05/06 15:07:27;;;;;;;6.43;4.15;;;;;;;;;;5005016;28;20053;-80
2022/05/06 15:09:53;;;;;;;5.20;3.33;;;;;;;;;;5028444;28;20022;-83
2022/05/06 15:12:19;;;;;;;6.65;4.72;;;;;;;;;;5024517;28;20030;-85
2022/05/06 15:14:45;;;;;;;5.90;4.45;;;;;;;;;;5028338;28;20018;-81
2022/05/06 15:17:15;;;;;;;10.50;4.75;;;;;;;;;;5024770;28;20033;-81
2022/05/06 15:19:42;;;;;;;5.93;4.57;;;;;;;;;;5025704;28;20064;-79
2022/05/06 15:22:08;;;;;;;8.32;4.45;;;;;;;;;;5032850;28;20041;-80